Time;durP1;ratioP1;P1;durP2;ratioP2;P2;SDS_P1;SDS_P2;PMS_P1;PMS_P2;Temp;Humidity;BMP_temperature;BMP_pressure;BME280_temperature;BME280_humidity;BME280_pressure;Samples;Min_cycle;Max_cycle;Signal;HPM_P1;HPM_P2
2023/02/27 00:02:16;;;;;;;1.15;0.70;;;;;;;0.99;74.58;99734.34;6350344;28;20051;-76
2023/02/27 00:05:18;;;;;;;1.10;0.82;;;;;;;1.00;75.20;99733.47;6351558;28;20039;-76
2023/02/27 00:08:18;;;;;;;0.50;0.50;;;;;;;1.01;74.21;99727.44;6350507;28;20059;-76
2023/02/27 00:11:20;;;;;;;1.20;0.80;;;;;;;1.00;75.20;99728.31;6351273;28;20268;-76
2023/02/27 00:14:21;;;;;;;1.52;1.10;;;;;;;0.93;74.57;99737.09;6350122;28;20142;-76
2023/02/27 00:17:24;;;;;;;1.52;1.23;;;;;;;0.99;74.61;99745.47;6350903;28;20040;-76
2023/02/27 00:20:25;;;;;;;2.45;1.15;;;;;;;0.87;74.84;99737.25;6350930;28;20118;-76
2023/02/27 00:23:27;;;;;;;0.43;0.43;;;;;;;0.91;74.40;99737.13;6349850;28;20119;-76
2023/02/27 00:26:30;;;;;;;3.05;1.17;;;;;;;0.90;74.74;99739.72;6350888;28;20108;-76
2023/02/27 00:29:31;;;;;;;2.63;1.63;;;;;;;0.97;75.04;99734.38;6351062;28;20096;-76
2023/02/27 00:32:35;;;;;;;0.77;0.60;;;;;;;0.95;74.73;99727.63;6351300;28;20475;-76
2023/02/27 00:35:36;;;;;;;3.42;2.35;;;;;;;0.79;74.88;99734.88;6350822;28;20043;-76
2023/02/27 00:38:36;;;;;;;0.77;0.77;;;;;;;0.80;75.71;99727.13;6350671;27;20527;-76
2023/02/27 00:41:38;;;;;;;5.43;1.13;;;;;;;0.83;75.86;99728.78;6349031;28;20056;-76
2023/02/27 00:44:43;;;;;;;0.85;0.63;;;;;;;0.85;75.23;99728.75;6350291;28;20514;-76
2023/02/27 00:47:44;;;;;;;1.15;1.05;;;;;;;0.84;75.35;99722.75;6349162;28;20472;-76
2023/02/27 00:50:45;;;;;;;0.95;0.60;;;;;;;0.70;76.10;99724.81;6349119;28;20040;-76
2023/02/27 00:53:46;;;;;;;2.63;0.90;;;;;;;0.86;75.30;99712.44;6348881;28;20046;-76
2023/02/27 00:56:46;;;;;;;2.88;1.05;;;;;;;0.84;75.53;99725.31;6349000;28;20475;-76
2023/02/27 00:59:47;;;;;;;1.17;0.98;;;;;;;0.72;75.36;99720.50;6348924;28;20035;-76
2023/02/27 01:02:48;;;;;;;0.63;0.63;;;;;;;0.72;75.49;99723.94;6348858;28;20085;-76
2023/02/27 01:05:51;;;;;;;5.15;0.80;;;;;;;0.77;74.79;99729.78;6348743;28;20067;-76
2023/02/27 01:08:54;;;;;;;1.02;0.88;;;;;;;0.72;74.64;99726.50;6348704;28;20092;-76
2023/02/27 01:11:56;;;;;;;0.73;0.70;;;;;;;0.84;74.21;99739.88;6348584;28;20040;-76
2023/02/27 01:14:57;;;;;;;0.93;0.80;;;;;;;0.75;74.12;99740.97;6348555;28;20047;-76
2023/02/27 01:18:00;;;;;;;0.80;0.80;;;;;;;0.62;74.74;99732.75;6349742;28;20036;-76
2023/02/27 01:21:01;;;;;;;0.55;0.47;;;;;;;0.68;74.04;99739.44;6349721;28;20039;-76
2023/02/27 01:24:04;;;;;;;1.52;1.17;;;;;;;0.69;73.90;99736.81;6348258;28;20065;-76
2023/02/27 01:27:05;;;;;;;1.40;0.90;;;;;;;0.72;73.55;99756.44;6349533;28;20089;-76
2023/02/27 01:30:07;;;;;;;3.78;1.83;;;;;;;0.61;73.69;99738.75;6348746;28;20039;-76
2023/02/27 01:33:08;;;;;;;1.83;0.93;;;;;;;0.70;73.47;99747.94;6348546;28;20109;-76
2023/02/27 01:36:12;;;;;;;1.15;0.93;;;;;;;0.67;73.11;99748.03;6347637;28;20047;-75
2023/02/27 01:39:12;;;;;;;3.13;0.90;;;;;;;0.73;72.74;99756.41;6347108;28;20544;-76
2023/02/27 01:42:23;;;;;;;0.68;0.65;;;;;;;0.76;71.56;99766.63;6347876;28;20048;-75
2023/02/27 01:45:33;;;;;;;0.93;0.82;;;;;;;0.60;72.41;99763.59;6347969;28;20070;-75
2023/02/27 01:48:37;;;;;;;3.25;1.20;;;;;;;0.59;71.48;99761.88;6346365;28;20114;-72
2023/02/27 01:51:50;;;;;;;3.15;0.95;;;;;;;0.56;71.79;99769.69;6347086;28;20602;-72
2023/02/27 01:54:53;;;;;;;2.05;0.70;;;;;;;0.56;71.58;99776.53;6346030;28;20409;-72
2023/02/27 01:57:55;;;;;;;1.23;0.93;;;;;;;0.48;71.36;99769.03;6346905;28;20046;-72
2023/02/27 02:00:56;;;;;;;0.95;0.70;;;;;;;0.58;71.17;99774.78;6346937;28;20587;-72
2023/02/27 02:04:15;;;;;;;1.30;0.77;;;;;;;0.59;70.64;99776.47;6345464;28;20044;-72
2023/02/27 02:07:18;;;;;;;1.67;1.45;;;;;;;0.53;70.67;99776.59;6346880;28;20046;-72
2023/02/27 02:10:20;;;;;;;2.10;1.00;;;;;;;0.57;70.33;99771.34;6345392;28;20039;-72
2023/02/27 02:13:21;;;;;;;1.30;0.93;;;;;;;0.47;70.69;99777.59;6346574;28;20035;-72
2023/02/27 02:17:09;;;;;;;2.00;1.33;;;;;;;0.48;70.26;99788.72;6346442;28;20051;-72
2023/02/27 02:20:49;;;;;;;0.88;0.88;;;;;;;0.49;70.61;99798.94;6294495;28;20060;-73
2023/02/27 02:24:02;;;;;;;0.68;0.68;;;;;;;0.55;70.34;99788.50;6344750;28;20112;-73
2023/02/27 02:27:18;;;;;;;2.30;0.93;;;;;;;0.46;69.58;99785.34;6345265;28;20040;-73
2023/02/27 02:30:40;;;;;;;2.15;1.17;;;;;;;0.31;70.35;99802.78;6346817;28;20043;-76
2023/02/27 02:33:56;;;;;;;1.27;0.93;;;;;;;0.44;70.04;99800.78;6345841;28;20043;-75
2023/02/27 02:37:19;;;;;;;1.85;1.48;;;;;;;0.33;70.11;99808.75;6346091;28;20047;-75
2023/02/27 02:41:03;;;;;;;0.73;0.73;;;;;;;0.30;70.29;99790.00;6345236;28;20051;-76
2023/02/27 02:44:13;;;;;;;1.92;1.25;;;;;;;0.28;69.77;99799.44;6338216;28;20047;-75
2023/02/27 02:48:12;;;;;;;2.15;0.98;;;;;;;0.42;69.41;99806.84;6346864;28;20404;-75
2023/02/27 02:51:20;;;;;;;1.40;0.82;;;;;;;0.36;69.44;99807.81;6294819;28;20044;-76
2023/02/27 02:54:39;;;;;;;1.30;0.98;;;;;;;0.24;69.97;99802.97;6346579;28;20144;-76
2023/02/27 02:57:54;;;;;;;0.47;0.47;;;;;;;0.26;69.66;99816.59;6346905;28;20499;-75
2023/02/27 03:01:13;;;;;;;1.92;0.80;;;;;;;0.24;68.90;99818.38;6345455;28;20048;-76
2023/02/27 03:04:29;;;;;;;3.55;0.95;;;;;;;0.13;69.64;99823.75;6346783;28;20043;-77
2023/02/27 03:07:45;;;;;;;0.28;0.28;;;;;;;0.25;69.88;99823.47;6346593;28;20036;-76
2023/02/27 03:11:06;;;;;;;0.75;0.35;;;;;;;0.10;70.64;99834.88;6346535;28;20063;-76
2023/02/27 03:14:28;;;;;;;0.70;0.70;;;;;;;0.08;69.75;99839.22;6345101;28;20063;-76
2023/02/27 03:17:36;;;;;;;0.77;0.77;;;;;;;0.22;70.01;99838.91;6345128;28;20047;-76
2023/02/27 03:20:46;;;;;;;0.75;0.63;;;;;;;0.03;69.48;99845.34;6345397;28;20476;-76
2023/02/27 03:23:49;;;;;;;0.77;0.75;;;;;;;0.00;70.37;99846.25;6344902;28;20116;-76
2023/02/27 03:26:52;;;;;;;0.90;0.65;;;;;;;0.06;70.26;99853.78;6346180;28;20039;-76
2023/02/27 03:30:00;;;;;;;0.65;0.65;;;;;;;0.05;69.71;99856.41;6345178;28;20130;-76
2023/02/27 03:33:10;;;;;;;17.33;2.47;;;;;;;0.05;69.79;99862.38;6344887;28;20055;-76
2023/02/27 03:36:37;;;;;;;2.70;2.38;;;;;;;0.07;70.67;99864.91;6344927;28;20044;-76
2023/02/27 03:39:54;;;;;;;0.50;0.50;;;;;;;0.14;70.58;99881.84;6334306;28;20490;-76
2023/02/27 03:43:10;;;;;;;1.13;0.70;;;;;;;0.01;70.59;99883.84;6345905;28;20052;-74
2023/02/27 03:46:22;;;;;;;2.15;0.70;;;;;;;-0.05;70.36;99887.38;6346130;28;20127;-74
2023/02/27 03:49:23;;;;;;;1.15;0.77;;;;;;;0.04;70.62;99888.06;6346273;28;20399;-75
2023/02/27 03:52:27;;;;;;;0.68;0.68;;;;;;;0.04;70.50;99888.06;6347201;28;20046;-75
2023/02/27 03:55:33;;;;;;;0.93;0.60;;;;;;;0.01;70.50;99888.97;6350769;28;20093;-75
2023/02/27 03:58:37;;;;;;;0.65;0.65;;;;;;;-0.05;70.79;99878.84;6350742;28;20376;-74
2023/02/27 04:01:38;;;;;;;4.80;0.82;;;;;;;-0.05;70.67;99886.53;6350705;28;20555;-74
2023/02/27 04:04:39;;;;;;;0.65;0.65;;;;;;;-0.04;70.67;99885.66;6350426;28;20047;-75
2023/02/27 04:08:05;;;;;;;1.17;1.15;;;;;;;-0.05;70.98;99894.22;6350370;28;20070;-75
2023/02/27 04:11:33;;;;;;;1.02;0.73;;;;;;;-0.06;71.42;99908.78;6348948;28;20043;-75
2023/02/27 04:15:11;;;;;;;0.63;0.60;;;;;;;-0.01;71.41;99906.13;6350085;28;20498;-74
2023/02/27 04:18:31;;;;;;;1.08;0.88;;;;;;;-0.06;70.85;99919.03;6350222;28;20062;-75
2023/02/27 04:21:42;;;;;;;0.60;0.52;;;;;;;0.07;70.74;99919.63;6350195;28;20126;-75
2023/02/27 04:25:10;;;;;;;1.15;1.00;;;;;;;-0.08;71.46;99907.97;6348775;28;20047;-75
2023/02/27 04:28:16;;;;;;;1.50;0.95;;;;;;;0.02;71.66;99929.13;6338263;28;20419;-75
2023/02/27 04:31:53;;;;;;;0.68;0.52;;;;;;;-0.05;71.17;99925.84;6348665;28;20035;-74
2023/02/27 04:35:08;;;;;;;0.95;0.77;;;;;;;-0.06;71.61;99919.03;6346527;28;20055;-75
2023/02/27 04:38:30;;;;;;;1.17;1.08;;;;;;;-0.01;71.44;99930.03;6349980;28;20047;-74
2023/02/27 04:41:46;;;;;;;3.10;1.23;;;;;;;-0.01;70.78;99924.91;6348665;28;20062;-75
2023/02/27 04:44:49;;;;;;;1.45;0.77;;;;;;;0.03;71.17;99923.13;6350146;28;20152;-75
2023/02/27 04:48:02;;;;;;;1.25;0.93;;;;;;;0.08;70.84;99934.13;6348483;28;20082;-75
2023/02/27 04:51:03;;;;;;;1.00;0.80;;;;;;;0.02;70.82;99928.28;6349535;28;20073;-75
2023/02/27 04:54:11;;;;;;;2.10;0.88;;;;;;;-0.09;70.78;99939.59;6349655;28;20043;-74
2023/02/27 04:57:18;;;;;;;1.45;1.00;;;;;;;-0.01;71.13;99931.75;6348060;28;20399;-75
2023/02/27 05:00:24;;;;;;;0.50;0.50;;;;;;;-0.06;71.00;99931.03;6348161;28;20444;-75
2023/02/27 05:03:34;;;;;;;6.07;1.48;;;;;;;0.16;70.52;99937.41;6347197;28;20058;-75
2023/02/27 05:06:38;;;;;;;2.30;0.73;;;;;;;0.03;70.09;99930.84;6349077;28;20043;-75
2023/02/27 05:09:49;;;;;;;1.25;0.77;;;;;;;0.04;70.35;99931.66;6349237;28;20100;-74
2023/02/27 05:12:59;;;;;;;1.13;0.60;;;;;;;-0.14;69.89;99935.47;6349040;28;20035;-75
2023/02/27 05:16:12;;;;;;;0.57;0.57;;;;;;;0.03;69.89;99950.50;6348881;28;20146;-74
2023/02/27 05:19:12;;;;;;;2.53;1.00;;;;;;;-0.02;70.75;99948.88;6347998;28;20054;-75
2023/02/27 05:22:35;;;;;;;0.47;0.47;;;;;;;-0.02;70.28;99959.16;6348769;28;20044;-75
2023/02/27 05:25:51;;;;;;;0.38;0.32;;;;;;;0.10;70.16;99968.31;6347331;28;20046;-75
2023/02/27 05:29:11;;;;;;;0.77;0.77;;;;;;;-0.04;69.94;99970.31;6348516;28;20043;-75
2023/02/27 05:32:28;;;;;;;3.58;1.88;;;;;;;-0.09;69.86;99970.38;6347334;28;20039;-75
2023/02/27 05:35:31;;;;;;;0.70;0.68;;;;;;;-0.08;70.39;99986.66;6348559;28;20093;-75
2023/02/27 05:38:48;;;;;;;0.50;0.50;;;;;;;0.05;69.63;99995.78;6348535;28;20091;-74
2023/02/27 05:41:57;;;;;;;0.40;0.40;;;;;;;0.21;70.23;99998.91;6347005;28;20051;-75
2023/02/27 05:45:06;;;;;;;0.47;0.47;;;;;;;0.05;69.54;100003.47;6364330;27;20126;-75
2023/02/27 05:48:18;;;;;;;0.25;0.25;;;;;;;0.10;69.57;100009.34;6364253;27;20048;-74
2023/02/27 05:51:23;;;;;;;0.55;0.55;;;;;;;0.11;68.97;100008.50;6363911;27;20395;-75
2023/02/27 05:54:30;;;;;;;1.48;0.90;;;;;;;0.24;68.44;100009.09;6346643;28;20027;-75
2023/02/27 05:57:38;;;;;;;1.45;1.00;;;;;;;0.12;69.36;100022.16;6346781;28;20062;-75
2023/02/27 06:00:47;;;;;;;0.82;0.77;;;;;;;0.02;68.92;100010.38;6346877;28;20039;-75
2023/02/27 06:03:49;;;;;;;2.53;1.38;;;;;;;0.25;68.71;100027.91;6347817;28;20166;-75
2023/02/27 06:06:50;;;;;;;1.75;0.70;;;;;;;0.28;68.32;100033.00;6346495;28;20475;-75
2023/02/27 06:09:51;;;;;;;1.47;0.90;;;;;;;0.07;69.05;100035.09;6346624;28;20051;-75
2023/02/27 06:12:52;;;;;;;0.82;0.80;;;;;;;0.29;68.23;100039.81;6346005;28;20039;-72
2023/02/27 06:15:53;;;;;;;1.63;1.50;;;;;;;0.14;67.80;100057.19;6346386;28;20551;-72
2023/02/27 06:18:54;;;;;;;0.43;0.43;;;;;;;0.27;67.91;100055.25;6345338;28;20047;-71
2023/02/27 06:21:55;;;;;;;0.35;0.35;;;;;;;0.15;66.95;100053.75;6346536;28;20040;-73
2023/02/27 06:24:57;;;;;;;2.08;0.88;;;;;;;0.15;66.64;100058.88;6345119;28;20043;-73
2023/02/27 06:27:58;;;;;;;0.80;0.80;;;;;;;0.28;66.89;100056.94;6345200;28;20042;-73
2023/02/27 06:30:59;;;;;;;2.08;0.75;;;;;;;0.22;66.58;100061.34;6346486;28;20063;-71
2023/02/27 06:34:02;;;;;;;1.00;0.65;;;;;;;0.16;66.92;100055.44;6345027;28;20315;-71
2023/02/27 06:37:03;;;;;;;1.45;0.80;;;;;;;0.26;66.07;100037.31;6344949;28;20035;-71
2023/02/27 06:40:04;;;;;;;1.60;1.23;;;;;;;0.33;65.54;100055.13;6346267;28;20046;-71
2023/02/27 06:43:08;;;;;;;0.32;0.32;;;;;;;0.40;65.10;100053.28;6344773;28;20063;-72
2023/02/27 06:46:09;;;;;;;1.65;1.05;;;;;;;0.44;65.40;100067.75;6346365;28;20050;-72
2023/02/27 06:49:10;;;;;;;3.40;1.20;;;;;;;0.58;64.55;100060.63;6344851;28;20040;-73
2023/02/27 06:52:10;;;;;;;1.67;1.08;;;;;;;0.52;63.96;100075.31;6345888;28;20470;-74
2023/02/27 06:55:11;;;;;;;1.50;1.00;;;;;;;0.39;64.05;100088.41;6345861;28;20043;-73
2023/02/27 06:58:13;;;;;;;0.60;0.60;;;;;;;0.60;64.22;100084.56;6344571;28;20097;-73
2023/02/27 07:01:13;;;;;;;1.02;0.90;;;;;;;0.66;63.56;100090.44;6345888;28;20050;-73
2023/02/27 07:04:15;;;;;;;0.85;0.47;;;;;;;0.84;62.83;100086.66;6345810;28;20040;-73
2023/02/27 07:07:20;;;;;;;0.50;0.40;;;;;;;0.77;62.87;100089.34;6345710;28;20044;-73
2023/02/27 07:10:21;;;;;;;0.45;0.45;;;;;;;0.84;63.22;100094.38;6344512;28;20047;-73
2023/02/27 07:13:22;;;;;;;6.47;1.92;;;;;;;0.60;63.15;100099.13;6345696;28;20115;-73
2023/02/27 07:16:23;;;;;;;0.75;0.75;;;;;;;0.58;63.93;100122.25;6345535;28;20036;-73
2023/02/27 07:19:24;;;;;;;0.65;0.60;;;;;;;0.53;63.87;100123.22;6344409;28;20044;-73
2023/02/27 07:22:25;;;;;;;1.35;0.55;;;;;;;0.48;63.55;100119.91;6344369;28;20069;-72
2023/02/27 07:25:26;;;;;;;0.35;0.35;;;;;;;0.49;64.56;100127.56;6344238;28;20040;-72
2023/02/27 07:28:27;;;;;;;1.10;1.00;;;;;;;0.56;63.50;100139.41;6347448;28;20122;-73
2023/02/27 07:31:28;;;;;;;0.82;0.82;;;;;;;0.45;63.49;100143.88;6349327;28;20067;-72
2023/02/27 07:34:29;;;;;;;0.95;0.60;;;;;;;0.66;62.35;100142.66;6350358;28;20044;-73
2023/02/27 07:37:30;;;;;;;0.40;0.40;;;;;;;0.84;62.84;100150.88;6348973;28;20039;-73
2023/02/27 07:40:33;;;;;;;3.83;1.35;;;;;;;0.79;61.63;100153.56;6350246;28;20392;-72
2023/02/27 07:43:34;;;;;;;2.70;0.80;;;;;;;0.74;62.27;100156.22;6348778;28;20503;-73
2023/02/27 07:46:35;;;;;;;0.40;0.40;;;;;;;0.72;61.48;100157.09;6348823;28;20051;-73
2023/02/27 07:49:38;;;;;;;0.32;0.32;;;;;;;0.61;60.97;100170.16;6351027;28;20086;-76
2023/02/27 07:52:43;;;;;;;0.45;0.43;;;;;;;0.56;60.84;100164.25;6351211;28;20537;-76
2023/02/27 07:55:44;;;;;;;0.70;0.70;;;;;;;0.73;60.77;100184.50;6349869;28;20104;-76
2023/02/27 07:58:45;;;;;;;1.65;0.75;;;;;;;0.89;60.47;100190.19;6351293;28;20074;-76
2023/02/27 08:01:49;;;;;;;0.28;0.28;;;;;;;0.98;60.60;100197.72;6350052;28;20044;-76
2023/02/27 08:04:50;;;;;;;1.00;0.90;;;;;;;0.90;60.84;100191.88;6350915;28;20055;-76
2023/02/27 08:07:51;;;;;;;1.50;1.00;;;;;;;1.05;60.68;100183.00;6349813;28;20411;-76
2023/02/27 08:10:54;;;;;;;1.08;0.95;;;;;;;1.17;60.33;100193.06;6349793;28;20105;-76
2023/02/27 08:13:55;;;;;;;0.30;0.30;;;;;;;1.13;60.62;100200.00;6350553;28;20071;-76
2023/02/27 08:16:56;;;;;;;0.65;0.60;;;;;;;1.18;59.24;100194.75;6349094;28;20159;-76
2023/02/27 08:19:56;;;;;;;1.05;0.85;;;;;;;1.14;58.91;100188.00;6350541;28;20169;-76
2023/02/27 08:22:57;;;;;;;1.85;0.80;;;;;;;1.09;59.17;100212.91;6349270;28;20043;-76
2023/02/27 08:26:04;;;;;;;0.40;0.40;;;;;;;1.23;59.10;100210.06;6350252;28;20046;-76
2023/02/27 08:29:05;;;;;;;2.42;0.68;;;;;;;1.23;58.81;100217.78;6350247;28;20036;-76
2023/02/27 08:32:06;;;;;;;1.13;0.95;;;;;;;1.12;58.52;100218.84;6350496;28;20120;-76
2023/02/27 08:35:08;;;;;;;0.45;0.38;;;;;;;1.32;59.24;100217.59;6349882;28;20043;-76
2023/02/27 08:38:08;;;;;;;8.20;1.27;;;;;;;1.47;59.27;100229.31;6365105;27;20085;-75
2023/02/27 08:41:09;;;;;;;0.55;0.32;;;;;;;1.68;58.72;100226.25;6348871;28;20640;-74
2023/02/27 08:44:11;;;;;;;1.35;0.70;;;;;;;1.67;58.09;100228.88;6348004;28;20504;-75
2023/02/27 08:47:15;;;;;;;0.88;0.38;;;;;;;1.92;58.57;100231.78;6349318;28;20035;-75
2023/02/27 08:50:16;;;;;;;1.10;0.85;;;;;;;1.75;58.15;100234.69;6349401;28;20043;-75
2023/02/27 08:53:16;;;;;;;1.45;0.60;;;;;;;1.87;58.90;100241.31;6347966;28;20492;-75
2023/02/27 08:56:17;;;;;;;1.27;0.80;;;;;;;2.09;58.04;100239.94;6349359;28;20088;-75
2023/02/27 08:59:18;;;;;;;0.95;0.70;;;;;;;2.10;58.15;100259.66;6348774;28;20035;-75
2023/02/27 09:02:22;;;;;;;0.52;0.50;;;;;;;2.12;58.40;100275.91;6348685;28;20101;-75
2023/02/27 09:05:25;;;;;;;0.28;0.28;;;;;;;1.60;57.96;100262.44;6347436;28;20054;-75
2023/02/27 09:08:28;;;;;;;0.60;0.60;;;;;;;1.86;57.79;100263.63;6348600;28;20093;-75
2023/02/27 09:11:30;;;;;;;0.93;0.88;;;;;;;1.75;57.98;100269.00;6348927;28;20047;-76
2023/02/27 09:14:31;;;;;;;1.02;0.93;;;;;;;1.85;57.91;100277.34;6348323;28;20093;-75
2023/02/27 09:17:34;;;;;;;0.70;0.70;;;;;;;1.58;58.20;100271.91;6347412;28;20411;-75
2023/02/27 09:20:35;;;;;;;1.48;0.70;;;;;;;1.78;57.87;100286.09;6347830;28;20190;-76
2023/02/27 09:23:36;;;;;;;0.28;0.28;;;;;;;1.76;57.84;100291.25;6346727;28;20331;-76
2023/02/27 09:26:39;;;;;;;1.45;0.77;;;;;;;1.99;58.50;100298.50;6346571;28;20130;-76
2023/02/27 09:29:42;;;;;;;1.63;0.82;;;;;;;1.98;57.88;100301.13;6346510;28;20071;-76
2023/02/27 09:32:44;;;;;;;1.17;0.65;;;;;;;2.08;57.96;100305.19;6348035;28;20407;-76
2023/02/27 09:35:44;;;;;;;0.35;0.35;;;;;;;2.04;57.34;100313.84;6348068;28;20069;-75
2023/02/27 09:38:45;;;;;;;1.48;0.73;;;;;;;1.97;57.08;100312.28;6346879;28;20088;-75
2023/02/27 09:42:14;;;;;;;0.77;0.65;;;;;;;2.07;57.63;100326.66;6347755;28;20044;-75
2023/02/27 09:45:22;;;;;;;0.85;0.77;;;;;;;2.13;57.47;100335.97;6347736;28;20043;-75
2023/02/27 09:48:38;;;;;;;0.75;0.55;;;;;;;2.26;56.83;100329.66;6347631;28;20096;-75
2023/02/27 09:51:39;;;;;;;1.70;0.90;;;;;;;2.05;56.96;100333.56;6346086;28;20123;-75
2023/02/27 09:54:40;;;;;;;1.10;1.00;;;;;;;2.25;56.80;100351.16;6347507;28;20096;-72
2023/02/27 09:58:06;;;;;;;0.43;0.43;;;;;;;2.17;57.27;100348.72;6347058;28;20487;-72
2023/02/27 10:01:15;;;;;;;1.52;0.73;;;;;;;2.31;57.13;100355.31;6345824;28;20040;-72
2023/02/27 10:05:07;;;;;;;0.80;0.77;;;;;;;2.28;56.12;100356.22;6346975;28;20092;-72
2023/02/27 10:08:13;;;;;;;1.25;0.57;;;;;;;2.38;55.93;100360.28;6312426;28;20112;-72
2023/02/27 10:11:23;;;;;;;0.60;0.60;;;;;;;2.63;56.67;100373.44;6345499;28;20040;-72
2023/02/27 10:14:44;;;;;;;1.45;0.95;;;;;;;2.61;56.75;100372.66;6345397;28;20141;-72
2023/02/27 10:17:53;;;;;;;0.77;0.70;;;;;;;2.78;55.28;100380.00;6346205;28;20061;-72
2023/02/27 10:21:09;;;;;;;0.90;0.60;;;;;;;2.77;55.57;100378.28;6346686;28;20384;-72
2023/02/27 10:24:26;;;;;;;2.03;0.70;;;;;;;3.11;55.86;100374.03;6346596;28;20244;-72
2023/02/27 10:27:29;;;;;;;0.65;0.65;;;;;;;2.97;54.89;100380.38;6345335;28;20498;-72
2023/02/27 10:30:30;;;;;;;0.68;0.65;;;;;;;2.98;55.36;100373.50;6345124;28;20040;-72
2023/02/27 10:33:38;;;;;;;0.93;0.90;;;;;;;2.86;55.12;100373.78;6346263;28;20108;-72
2023/02/27 10:36:39;;;;;;;1.08;0.80;;;;;;;2.79;55.66;100373.94;6361433;27;20092;-73
2023/02/27 10:39:52;;;;;;;1.08;0.68;;;;;;;3.03;56.49;100384.56;6344929;28;20054;-72
2023/02/27 10:42:55;;;;;;;7.05;1.17;;;;;;;2.91;56.05;100379.69;6346192;28;20417;-75
2023/02/27 10:46:00;;;;;;;1.30;1.02;;;;;;;3.18;55.75;100391.06;6346292;28;20096;-72
2023/02/27 10:49:12;;;;;;;2.30;1.25;;;;;;;3.37;55.09;100394.00;6344789;28;20040;-72
2023/02/27 10:52:15;;;;;;;0.57;0.57;;;;;;;3.34;54.77;100391.53;6361587;27;20065;-72
2023/02/27 10:55:22;;;;;;;0.73;0.70;;;;;;;3.78;53.89;100392.91;6344511;28;20047;-72
2023/02/27 10:58:26;;;;;;;0.82;0.82;;;;;;;3.85;53.41;100385.84;6344619;28;20047;-72
2023/02/27 11:01:41;;;;;;;2.60;1.08;;;;;;;4.03;53.39;100390.47;6345116;28;20040;-72
2023/02/27 11:04:52;;;;;;;1.83;0.95;;;;;;;4.05;53.63;100395.59;6345786;28;20087;-72
2023/02/27 11:07:55;;;;;;;0.82;0.75;;;;;;;3.93;53.73;100401.09;6344701;28;20499;-75
2023/02/27 11:11:01;;;;;;;2.17;0.73;;;;;;;4.03;53.83;100405.97;6362016;28;20503;-72
2023/02/27 11:14:35;;;;;;;1.67;0.70;;;;;;;4.00;53.58;100406.06;6344385;28;20040;-72
2023/02/27 11:17:35;;;;;;;0.85;0.73;;;;;;;3.70;53.52;100415.50;6344083;28;20187;-72
2023/02/27 11:20:42;;;;;;;3.20;1.00;;;;;;;3.57;54.08;100398.66;6345458;28;20039;-72
2023/02/27 11:24:08;;;;;;;1.80;0.73;;;;;;;3.61;53.47;100397.69;6361429;28;20490;-72
2023/02/27 11:27:31;;;;;;;1.88;0.52;;;;;;;3.76;53.34;100409.31;6345480;28;20101;-71
2023/02/27 11:30:32;;;;;;;1.83;0.60;;;;;;;3.71;54.63;100398.28;6344353;28;20472;-72
2023/02/27 11:33:38;;;;;;;0.65;0.47;;;;;;;3.89;54.35;100397.78;6345376;28;20035;-72
2023/02/27 11:36:51;;;;;;;0.82;0.77;;;;;;;4.04;53.67;100399.09;6344107;28;20084;-72
2023/02/27 11:40:00;;;;;;;0.65;0.65;;;;;;;3.90;53.15;100403.78;6344188;28;20085;-72
2023/02/27 11:43:17;;;;;;;0.75;0.75;;;;;;;3.95;53.67;100410.50;6344007;28;20050;-72
2023/02/27 11:46:20;;;;;;;0.60;0.60;;;;;;;3.60;52.95;100417.50;6345212;28;20074;-72
2023/02/27 11:49:33;;;;;;;1.50;0.93;;;;;;;3.46;53.71;100421.28;6343929;28;20492;-72
2023/02/27 11:52:52;;;;;;;4.93;2.55;;;;;;;3.54;54.00;100411.63;6345240;28;20059;-71
2023/02/27 11:55:58;;;;;;;1.15;0.82;;;;;;;3.53;55.17;100408.19;6345039;28;20135;-72
2023/02/27 11:59:14;;;;;;;0.90;0.63;;;;;;;3.58;53.64;100402.91;6345106;28;20035;-71
2023/02/27 12:02:43;;;;;;;5.85;0.93;;;;;;;3.50;54.02;100403.13;6345072;28;20101;-72
2023/02/27 12:05:50;;;;;;;0.77;0.70;;;;;;;3.52;54.27;100410.81;6343865;28;20050;-72
2023/02/27 12:09:06;;;;;;;1.65;0.85;;;;;;;3.84;53.76;100413.38;6360867;28;20499;-72
2023/02/27 12:12:17;;;;;;;2.17;1.60;;;;;;;3.82;54.22;100415.16;6361021;28;20711;-72
2023/02/27 12:15:45;;;;;;;4.25;0.98;;;;;;;3.87;53.31;100427.09;6347782;28;20068;-72
2023/02/27 12:19:09;;;;;;;1.75;0.95;;;;;;;3.88;54.00;100429.63;6349372;28;20042;-72
2023/02/27 12:22:28;;;;;;;0.88;0.80;;;;;;;3.93;54.67;100429.50;6349157;28;20046;-72
2023/02/27 12:25:51;;;;;;;0.70;0.70;;;;;;;3.58;53.82;100433.88;6349311;28;20050;-72
2023/02/27 12:29:00;;;;;;;1.15;0.93;;;;;;;3.73;54.67;100427.50;6365375;27;20035;-72
2023/02/27 12:32:28;;;;;;;0.63;0.63;;;;;;;3.85;54.48;100427.16;6347784;28;20040;-72
2023/02/27 12:35:32;;;;;;;0.60;0.40;;;;;;;3.72;55.16;100425.78;6349039;28;20074;-72
2023/02/27 12:38:33;;;;;;;0.60;0.60;;;;;;;3.75;54.40;100417.97;6358855;27;20484;-72
2023/02/27 12:41:37;;;;;;;2.22;1.27;;;;;;;3.54;54.36;100429.69;6349617;27;20042;-73
2023/02/27 12:45:02;;;;;;;1.23;0.85;;;;;;;3.61;54.22;100426.06;6373728;27;20054;-73
2023/02/27 12:48:21;;;;;;;1.60;1.30;;;;;;;3.40;54.70;100424.91;6373160;27;20036;-72
2023/02/27 12:51:46;;;;;;;3.33;1.73;;;;;;;3.69;53.95;100436.19;6373895;27;20047;-75
2023/02/27 12:54:54;;;;;;;1.20;1.00;;;;;;;3.53;53.74;100446.91;6373702;27;20462;-75
2023/02/27 12:58:10;;;;;;;0.60;0.60;;;;;;;3.62;53.07;100448.38;6373684;27;20063;-75
2023/02/27 13:01:28;;;;;;;0.52;0.52;;;;;;;3.67;53.13;100462.03;6373722;27;20035;-75
2023/02/27 13:04:48;;;;;;;1.95;0.75;;;;;;;3.92;52.91;100475.13;6374487;27;20039;-75
2023/02/27 13:07:49;;;;;;;1.38;1.00;;;;;;;4.01;53.77;100481.78;6373318;27;20039;-75
2023/02/27 13:11:22;;;;;;;8.90;1.90;;;;;;;3.69;53.86;100487.81;6374552;27;20493;-75
2023/02/27 13:14:49;;;;;;;0.82;0.55;;;;;;;4.04;53.85;100490.31;6374610;27;20039;-75
2023/02/27 13:18:00;;;;;;;3.50;1.55;;;;;;;4.39;53.41;100495.38;6342395;27;20059;-75
2023/02/27 13:21:18;;;;;;;1.15;0.80;;;;;;;4.32;53.66;100496.44;6373067;27;20039;-75
2023/02/27 13:24:25;;;;;;;2.33;1.08;;;;;;;4.04;53.17;100505.78;6374018;27;20051;-75
2023/02/27 13:27:33;;;;;;;0.90;0.90;;;;;;;4.15;52.90;100509.81;6372899;27;20038;-75
2023/02/27 13:31:05;;;;;;;2.30;1.83;;;;;;;3.98;53.87;100511.13;6374364;27;20420;-75
2023/02/27 13:34:20;;;;;;;3.05;1.40;;;;;;;4.24;53.61;100509.56;6352420;27;20059;-75
2023/02/27 13:37:20;;;;;;;2.40;1.40;;;;;;;4.56;53.81;100513.00;6372444;27;20134;-75
2023/02/27 13:40:38;;;;;;;2.83;1.73;;;;;;;4.61;52.11;100516.28;6373360;27;20047;-75
2023/02/27 13:43:38;;;;;;;1.88;1.65;;;;;;;4.53;52.51;100524.28;6373086;27;20082;-75
2023/02/27 13:46:41;;;;;;;3.45;2.13;;;;;;;4.92;52.80;100523.13;6371995;27;20039;-75
2023/02/27 13:49:42;;;;;;;5.95;3.20;;;;;;;5.46;53.05;100522.31;6371680;27;20052;-75
2023/02/27 13:52:45;;;;;;;1.67;1.35;;;;;;;5.50;50.32;100529.09;6371727;27;20046;-76
2023/02/27 13:55:51;;;;;;;5.72;2.20;;;;;;;5.98;51.27;100536.13;6372975;27;20518;-75
2023/02/27 13:58:52;;;;;;;3.17;1.60;;;;;;;5.82;49.17;100535.75;6371694;27;20035;-75
2023/02/27 14:01:57;;;;;;;4.90;1.55;;;;;;;5.39;50.19;100525.97;6371601;27;20057;-75
2023/02/27 14:05:10;;;;;;;1.83;1.42;;;;;;;5.62;50.50;100527.81;6372584;27;20042;-75
2023/02/27 14:08:10;;;;;;;3.25;2.25;;;;;;;5.62;50.60;100528.69;6371353;27;20475;-75
2023/02/27 14:11:20;;;;;;;2.22;1.85;;;;;;;4.81;51.47;100531.22;6371365;27;20109;-75
2023/02/27 14:14:45;;;;;;;4.22;2.10;;;;;;;4.55;52.98;100532.81;6372699;27;20043;-75
2023/02/27 14:17:47;;;;;;;1.48;1.02;;;;;;;4.69;52.61;100545.34;6372279;27;20043;-75
2023/02/27 14:20:49;;;;;;;;;;;;;;;4.69;53.02;100540.16;6371566;27;20092;-75
2023/02/27 14:23:53;;;;;;;3.22;1.90;;;;;;;4.53;51.45;100542.34;6371111;27;19930;-75
2023/02/27 14:26:54;;;;;;;2.25;1.52;;;;;;;4.35;53.44;100550.63;6372152;27;20058;-75
2023/02/27 14:30:00;;;;;;;1.63;1.20;;;;;;;4.37;52.87;100554.00;6370835;27;20069;-75
2023/02/27 14:33:17;;;;;;;4.63;2.08;;;;;;;4.51;52.99;100563.94;6357884;27;20531;-75
2023/02/27 14:36:33;;;;;;;2.53;1.55;;;;;;;4.53;53.14;100564.75;6342566;28;20044;-75
2023/02/27 14:39:36;;;;;;;1.60;1.50;;;;;;;4.50;54.39;100572.59;6346553;28;20040;-75
2023/02/27 14:42:43;;;;;;;2.28;1.38;;;;;;;4.21;54.25;100569.91;6346372;28;20568;-75
2023/02/27 14:45:43;;;;;;;3.53;1.85;;;;;;;4.17;53.27;100567.44;6346703;28;20054;-75
2023/02/27 14:48:44;;;;;;;1.17;1.00;;;;;;;4.12;53.98;100558.97;6345021;28;20399;-75
2023/02/27 14:51:46;;;;;;;6.05;1.88;;;;;;;4.37;54.34;100564.34;6346494;28;20051;-75